Terminal Aerodrome Forecast
Issued by NWS

Home | Current Version | Previous Version | Text Only | Print | Product List | Glossary On
Versions: 1 2 3 4 5 6 7 8 9 10 11 12 13 14 15 16
000
FTUS42 KGSP 300520
TAFGMU
TAF
KGMU 300520Z 3006/0106 22005KT P6SM FEW090 SCT110
      TEMPO 3006/3008 BKN090 OVC110
     FM301300 24010KT P6SM SCT060
     FM301800 24012G20KT P6SM BKN060 PROB30 3020/3024 4SM TSRA
      BKN040CB
     FM010200 25009KT P6SM BKN060=

USA.gov is the U.S. government's official web portal to all federal, state and local government web resources and services.